Time;durP1;ratioP1;P1;durP2;ratioP2;P2;SDS_P1;SDS_P2;PMS_P1;PMS_P2;Temp;Humidity;BMP_temperature;BMP_pressure;BME280_temperature;BME280_humidity;BME280_pressure;Samples;Min_cycle;Max_cycle;Signal;HPM_P1;HPM_P2
2022/06/07 00:02:09;;;;;;;;;1.00;1.00;;;;;21.24;49.17;101254.69;5012133;28;47444;-85
2022/06/07 00:04:36;;;;;;;;;0.00;0.00;;;;;21.20;48.81;101250.50;5017002;28;45401;-84
2022/06/07 00:07:02;;;;;;;;;1.00;1.00;;;;;21.21;48.81;101257.63;5017299;28;45452;-85
2022/06/07 00:09:27;;;;;;;;;0.00;0.00;;;;;21.10;49.25;101239.53;5016992;28;45432;-85
2022/06/07 00:11:53;;;;;;;;;0.00;0.00;;;;;21.11;49.18;101234.97;5017059;28;46862;-85
2022/06/07 00:14:19;;;;;;;;;0.67;0.67;;;;;21.19;49.33;101246.03;5017278;28;45514;-85
2022/06/07 00:16:45;;;;;;;;;0.67;0.67;;;;;21.20;49.32;101245.94;5013933;28;45392;-85
2022/06/07 00:19:10;;;;;;;;;1.50;0.00;;;;;21.16;49.40;101249.00;5015993;28;45709;-85
2022/06/07 00:21:36;;;;;;;;;1.33;1.33;;;;;21.04;50.19;101234.59;5013195;28;46096;-84
2022/06/07 00:24:03;;;;;;;;;0.00;0.00;;;;;21.14;50.06;101245.56;5012063;28;45511;-84
2022/06/07 00:26:29;;;;;;;;;1.00;1.00;;;;;21.14;50.18;101235.59;5012712;28;45483;-84
2022/06/07 00:28:55;;;;;;;;;0.00;0.00;;;;;21.12;49.90;101229.44;5012795;28;45343;-84
2022/06/07 00:31:21;;;;;;;;;1.67;0.33;;;;;21.13;50.71;101238.44;5016585;28;46065;-85
2022/06/07 00:33:47;;;;;;;;;0.00;0.00;;;;;21.03;50.76;101231.03;5013181;28;45460;-83
2022/06/07 00:36:13;;;;;;;;;1.00;1.00;;;;;21.04;51.13;101238.16;5012207;28;45596;-84
2022/06/07 00:38:42;;;;;;;;;0.00;0.00;;;;;21.02;51.31;101228.44;5022331;28;45397;-84
2022/06/07 00:41:07;;;;;;;;;0.67;0.67;;;;;20.83;51.81;101200.09;5023532;28;46143;-83
2022/06/07 00:43:33;;;;;;;;;0.00;0.00;;;;;20.89;51.66;101206.03;5029096;28;45372;-84
2022/06/07 00:45:58;;;;;;;;;0.00;0.00;;;;;20.96;51.72;101210.84;5017901;28;45537;-85
2022/06/07 00:48:24;;;;;;;;;0.00;0.00;;;;;20.98;52.26;101211.56;5017852;28;45456;-84
2022/06/07 00:50:58;;;;;;;;;0.00;0.00;;;;;20.94;52.32;101210.09;5016387;28;46024;-85
2022/06/07 00:53:27;;;;;;;;;1.00;1.00;;;;;20.92;52.31;101203.94;5016267;28;45542;-85
2022/06/07 00:55:53;;;;;;;;;0.00;0.00;;;;;20.92;52.19;101197.66;5021484;28;45484;-83
2022/06/07 00:58:19;;;;;;;;;1.00;1.00;;;;;20.90;52.48;101199.63;5016474;28;45859;-85
2022/06/07 01:00:44;;;;;;;;;3.00;0.00;;;;;20.82;52.75;101187.53;5016642;28;46261;-85
2022/06/07 01:03:11;;;;;;;;;0.00;0.00;;;;;20.86;52.85;101194.44;5008813;28;45942;-84
2022/06/07 01:05:36;;;;;;;;;0.00;0.00;;;;;20.84;52.80;101195.56;5011206;28;45489;-84
2022/06/07 01:10:47;;;;;;;;;0.00;0.00;;;;;20.80;53.47;101196.78;5016372;28;45967;-85
2022/06/07 01:13:16;;;;;;;;;1.00;1.00;;;;;20.78;53.04;101191.47;5028056;28;45440;-85
2022/06/07 01:15:45;;;;;;;;;1.00;1.00;;;;;20.77;53.43;101191.63;5016609;28;45505;-85
2022/06/07 01:18:11;;;;;;;;;1.00;1.00;;;;;20.79;53.39;101195.03;5011593;28;45436;-84
2022/06/07 01:20:36;;;;;;;;;0.33;0.00;;;;;20.80;53.39;101189.50;5015913;28;46139;-84
2022/06/07 01:23:01;;;;;;;;;0.67;0.67;;;;;20.81;53.78;101190.38;5015670;28;45559;-84
2022/06/07 01:25:27;;;;;;;;;0.33;0.33;;;;;20.71;53.25;101173.97;5018118;28;45419;-84
2022/06/07 01:27:52;;;;;;;;;0.00;0.00;;;;;20.75;54.10;101180.03;5016811;28;45479;-84
2022/06/07 01:30:18;;;;;;;;;2.00;0.00;;;;;20.73;53.62;101173.88;5011296;28;45511;-85
2022/06/07 01:32:43;;;;;;;;;3.00;1.00;;;;;20.66;53.67;101168.94;5016024;28;45828;-83
2022/06/07 01:35:09;;;;;;;;;1.00;1.00;;;;;20.60;53.82;101155.91;5011571;28;45365;-84
2022/06/07 01:37:34;;;;;;;;;1.00;1.00;;;;;20.72;54.31;101177.56;5016387;28;45445;-85
2022/06/07 01:42:44;;;;;;;;;0.00;0.00;;;;;20.58;54.03;101162.38;5015973;28;45360;-85
2022/06/07 01:45:09;;;;;;;;;0.33;0.33;;;;;20.68;54.05;101176.94;5015292;28;48595;-85
2022/06/07 01:47:35;;;;;;;;;1.00;1.00;;;;;20.56;54.13;101150.84;5010088;28;45542;-84
2022/06/07 01:50:02;;;;;;;;;0.00;0.00;;;;;20.49;54.89;101142.31;5007366;28;46004;-84
2022/06/07 01:52:31;;;;;;;;;0.00;0.00;;;;;20.64;54.79;101175.47;5015025;28;45399;-84
2022/06/07 01:54:56;;;;;;;;;0.67;0.67;;;;;20.58;53.96;101152.44;5011308;28;45408;-84
2022/06/07 01:57:22;;;;;;;;;0.00;0.00;;;;;20.71;54.65;101171.28;5016082;28;45475;-85
2022/06/07 01:59:48;;;;;;;;;2.00;1.00;;;;;20.57;54.04;101152.56;5015185;28;45518;-85
2022/06/07 02:02:14;;;;;;;;;1.00;1.00;;;;;20.65;54.75;101171.78;5015559;28;45291;-84
2022/06/07 02:04:42;;;;;;;;;0.00;0.00;;;;;20.60;55.03;101163.13;5015688;28;45340;-84
2022/06/07 02:07:09;;;;;;;;;0.00;0.00;;;;;20.49;54.62;101144.16;5015759;28;45547;-84
2022/06/07 02:09:35;;;;;;;;;0.00;0.00;;;;;20.58;55.00;101151.56;5015105;28;47555;-83
2022/06/07 02:12:00;;;;;;;;;1.00;1.00;;;;;20.64;54.64;101165.47;5014398;28;45567;-85
2022/06/07 02:14:27;;;;;;;;;0.00;0.00;;;;;20.61;55.25;101165.72;5010969;28;45508;-84
2022/06/07 02:16:52;;;;;;;;;0.00;0.00;;;;;20.54;55.37;101145.50;5015561;28;45403;-85
2022/06/07 02:19:18;;;;;;;;;0.00;0.00;;;;;20.60;55.21;101152.31;5015240;28;45408;-85
2022/06/07 02:21:44;;;;;;;;;0.00;0.00;;;;;20.57;55.25;101142.56;5015839;28;45264;-84
2022/06/07 02:24:10;;;;;;;;;0.00;0.00;;;;;20.54;55.24;101131.09;5015225;28;45393;-84
2022/06/07 02:26:52;;;;;;;;;1.00;1.00;;;;;20.61;54.97;101140.50;5015646;28;45686;-85
2022/06/07 02:29:26;;;;;;;;;0.00;0.00;;;;;20.55;54.86;101138.25;5007765;28;45414;-83
2022/06/07 02:32:02;;;;;;;;;2.33;1.00;;;;;20.59;55.24;101142.47;5014973;28;45420;-85
2022/06/07 02:34:29;;;;;;;;;1.00;1.00;;;;;20.50;55.61;101121.50;5010858;28;45407;-84
2022/06/07 02:36:59;;;;;;;;;1.00;1.00;;;;;20.63;55.19;101133.97;5015759;28;45409;-84
2022/06/07 02:39:25;;;;;;;;;0.00;0.00;;;;;20.60;54.91;101117.09;5009874;28;45427;-85
2022/06/07 02:41:53;;;;;;;;;0.00;0.00;;;;;20.66;55.07;101136.44;5010184;28;45431;-85
2022/06/07 02:44:19;;;;;;;;;0.00;0.00;;;;;20.66;55.32;101127.44;5010691;28;45454;-83
2022/06/07 02:46:44;;;;;;;;;2.00;2.00;;;;;20.50;55.11;101097.97;5017368;28;45438;-83
2022/06/07 02:49:09;;;;;;;;;2.00;2.00;;;;;20.62;55.76;101123.25;5000993;28;48918;-85
2022/06/07 02:51:35;;;;;;;;;0.00;0.00;;;;;20.48;55.97;101105.38;5015722;28;45446;-84
2022/06/07 02:54:00;;;;;;;;;1.00;1.00;;;;;20.58;55.60;101119.06;5014829;28;45432;-85
2022/06/07 02:56:25;;;;;;;;;0.00;0.00;;;;;20.57;55.47;101109.22;5015228;28;45526;-85
2022/06/07 02:58:51;;;;;;;;;1.00;1.00;;;;;20.58;55.42;101110.94;5014478;28;47068;-85
2022/06/07 03:01:16;;;;;;;;;0.00;0.00;;;;;20.60;55.53;101111.69;5014301;28;45456;-84
2022/06/07 03:03:42;;;;;;;;;0.00;0.00;;;;;20.58;56.07;101114.53;5015700;28;45476;-84
2022/06/07 03:06:08;;;;;;;;;0.67;0.67;;;;;20.57;56.16;101106.50;5014798;28;47910;-84
2022/06/07 03:08:33;;;;;;;;;1.00;1.00;;;;;20.54;55.62;101099.47;5014707;28;46231;-85
2022/06/07 03:10:59;;;;;;;;;1.00;1.00;;;;;20.56;56.34;101104.81;5014140;28;45312;-83
2022/06/07 03:13:24;;;;;;;;;0.00;0.00;;;;;20.50;55.73;101089.84;5014895;28;45454;-84
2022/06/07 03:15:52;;;;;;;;;0.33;0.33;;;;;20.56;56.03;101108.38;5015827;28;45434;-84
2022/06/07 03:18:18;;;;;;;;;1.67;0.67;;;;;20.57;56.42;101109.22;5013608;28;51914;-85
2022/06/07 03:20:45;;;;;;;;;0.00;0.00;;;;;20.42;56.48;101095.91;5013990;28;45880;-85
2022/06/07 03:23:10;;;;;;;;;1.00;1.00;;;;;20.50;56.65;101107.97;5013401;28;45538;-85
2022/06/07 03:25:36;;;;;;;;;0.67;0.00;;;;;20.53;56.59;101110.41;5017507;28;45389;-84
2022/06/07 03:28:01;;;;;;;;;1.00;1.00;;;;;20.54;56.56;101113.00;5010645;28;45744;-85
2022/06/07 03:30:26;;;;;;;;;1.00;1.00;;;;;20.51;56.38;101107.84;5018548;28;45430;-85
2022/06/07 03:32:52;;;;;;;;;1.00;1.00;;;;;20.44;56.90;101109.31;5013628;28;45432;-85
2022/06/07 03:35:17;;;;;;;;;0.33;0.33;;;;;20.41;56.96;101109.53;5017958;28;45619;-86
2022/06/07 03:37:43;;;;;;;;;1.00;1.00;;;;;20.41;56.93;101107.69;5018006;28;45570;-85
2022/06/07 03:40:14;;;;;;;;;1.00;1.00;;;;;20.39;57.06;101106.97;5017372;28;45486;-84
2022/06/07 03:42:39;;;;;;;;;1.33;1.00;;;;;20.34;56.96;101089.34;5018445;28;45516;-84
2022/06/07 03:45:06;;;;;;;;;1.67;1.67;;;;;20.37;57.25;101100.81;5017638;28;45506;-84
2022/06/07 03:47:32;;;;;;;;;0.00;0.00;;;;;20.41;57.52;101115.81;5012378;28;46091;-85
2022/06/07 03:49:58;;;;;;;;;0.00;0.00;;;;;20.38;57.70;101107.09;5008950;28;45467;-85
2022/06/07 03:52:23;;;;;;;;;1.00;1.00;;;;;20.28;57.46;101097.97;5017862;28;45727;-85
2022/06/07 03:54:49;;;;;;;;;1.00;1.00;;;;;20.37;57.79;101108.94;5013383;28;45499;-85
2022/06/07 03:57:16;;;;;;;;;1.00;1.00;;;;;20.28;58.03;101095.28;5017076;28;45524;-86
2022/06/07 03:59:41;;;;;;;;;1.00;1.00;;;;;20.34;58.21;101111.88;5012871;28;45536;-85
2022/06/07 04:02:07;;;;;;;;;1.00;1.00;;;;;20.22;58.57;101094.75;5011597;28;45431;-85
2022/06/07 04:04:34;;;;;;;;;0.00;0.00;;;;;20.33;58.51;101112.00;5016557;28;50401;-85
2022/06/07 04:09:43;;;;;;;;;1.00;1.00;;;;;20.31;58.33;101114.84;5016867;28;45403;-84
2022/06/07 04:12:12;;;;;;;;;2.67;1.00;;;;;20.30;58.29;101112.22;5015690;28;46585;-85
2022/06/07 04:14:39;;;;;;;;;2.00;1.00;;;;;20.27;58.59;101107.06;5017657;28;45538;-84
2022/06/07 04:17:06;;;;;;;;;0.00;0.00;;;;;20.11;59.04;101083.94;5009780;28;46185;-83
2022/06/07 04:19:33;;;;;;;;;0.00;0.00;;;;;20.15;58.64;101085.41;5017121;28;45449;-84
2022/06/07 04:21:59;;;;;;;;;0.33;0.33;;;;;20.27;59.74;101107.94;5016902;28;45258;-85
2022/06/07 04:24:24;;;;;;;;;1.00;1.00;;;;;20.13;61.62;101089.22;5017794;28;45622;-85
2022/06/07 04:26:49;;;;;;;;;2.00;1.00;;;;;20.24;62.74;101106.31;5015604;28;53894;-85
2022/06/07 04:29:15;;;;;;;;;0.00;0.00;;;;;20.14;63.21;101094.50;5016321;28;45416;-86
2022/06/07 04:31:40;;;;;;;;;0.00;0.00;;;;;20.19;63.57;101113.94;5016377;28;45426;-86
2022/06/07 04:34:06;;;;;;;;;2.00;0.00;;;;;20.20;63.93;101115.66;5014954;28;45657;-85
2022/06/07 04:36:32;;;;;;;;;0.00;0.00;;;;;20.16;65.35;101114.19;5019600;28;47111;-86
2022/06/07 04:39:02;;;;;;;;;1.00;1.00;;;;;20.10;65.93;101103.84;5009239;28;45547;-86
2022/06/07 04:41:27;;;;;;;;;2.67;1.00;;;;;20.16;66.41;101111.50;5015825;28;45474;-86
2022/06/07 04:43:54;;;;;;;;;1.00;1.00;;;;;20.09;66.30;101106.66;5014024;28;45305;-89
2022/06/07 04:46:21;;;;;;;;;0.00;0.00;;;;;19.96;66.84;101082.41;5014186;28;46145;-86
2022/06/07 04:48:48;;;;;;;;;1.67;1.00;;;;;20.04;68.18;101117.84;5016231;28;45630;-87
2022/06/07 04:51:19;;;;;;;;;1.00;1.00;;;;;19.96;68.43;101106.75;5015363;28;45335;-85
2022/06/07 04:53:44;;;;;;;;;0.33;0.33;;;;;19.95;68.44;101105.91;5015625;28;45497;-84
2022/06/07 04:56:19;;;;;;;;;18.33;17.33;;;;;19.86;69.03;101094.94;5008868;28;45895;-86
2022/06/07 04:58:44;;;;;;;;;9.00;6.67;;;;;19.92;69.77;101111.53;5016427;28;45692;-87
2022/06/07 05:01:14;;;;;;;;;1.00;1.00;;;;;19.90;70.38;101110.81;5008283;28;45396;-86
2022/06/07 05:03:39;;;;;;;;;1.00;1.00;;;;;19.77;70.36;101091.09;5017331;28;45417;-86
2022/06/07 05:06:24;;;;;;;;;1.67;1.00;;;;;19.86;70.91;101109.31;5013983;28;46985;-85
2022/06/07 05:08:51;;;;;;;;;3.00;2.00;;;;;19.85;70.88;101110.28;5009708;28;45650;-85
2022/06/07 05:11:17;;;;;;;;;0.67;0.67;;;;;19.74;70.18;101096.75;5013978;28;45510;-84
2022/06/07 05:13:43;;;;;;;;;1.00;1.00;;;;;19.69;71.20;101096.22;5007988;28;45449;-84
2022/06/07 05:16:08;;;;;;;;;1.00;1.00;;;;;19.78;71.18;101112.63;5009458;28;47087;-85
2022/06/07 05:18:34;;;;;;;;;2.00;1.00;;;;;19.77;71.34;101112.72;5010044;28;45498;-84
2022/06/07 05:20:59;;;;;;;;;2.00;1.00;;;;;19.71;70.82;101099.66;5009591;28;45567;-83
2022/06/07 05:23:25;;;;;;;;;1.33;0.33;;;;;19.67;71.03;101093.63;5012611;28;45524;-85
2022/06/07 05:26:01;;;;;;;;;2.00;1.00;;;;;19.79;71.62;101111.63;5009710;28;47076;-87
2022/06/07 05:28:27;;;;;;;;;2.00;0.33;;;;;19.77;71.42;101107.31;5014324;28;45581;-85
2022/06/07 05:30:52;;;;;;;;;0.00;0.00;;;;;19.65;71.39;101090.16;5012336;28;45518;-85
2022/06/07 05:33:17;;;;;;;;;0.00;0.00;;;;;19.59;71.87;101082.50;5009998;28;45524;-85
2022/06/07 05:35:43;;;;;;;;;1.00;1.00;;;;;19.75;71.58;101110.13;5010191;28;45554;-85
2022/06/07 05:38:10;;;;;;;;;1.00;1.00;;;;;19.75;71.54;101112.84;5008173;28;45949;-83
2022/06/07 05:40:36;;;;;;;;;1.00;1.00;;;;;19.77;71.70;101123.56;5008360;28;45603;-83
2022/06/07 05:43:01;;;;;;;;;2.33;1.33;;;;;19.70;71.72;101097.97;5011884;28;45576;-84
2022/06/07 05:45:26;;;;;;;;;1.00;1.00;;;;;19.73;71.96;101105.81;5006109;28;46999;-81
2022/06/07 05:47:54;;;;;;;;;1.00;1.00;;;;;19.71;72.01;101105.94;5016211;28;45600;-86
2022/06/07 05:50:20;;;;;;;;;2.00;1.00;;;;;19.84;71.16;101123.94;5008830;28;45471;-85
2022/06/07 05:52:45;;;;;;;;;0.67;0.67;;;;;19.84;71.84;101127.50;5012019;28;45456;-85
2022/06/07 05:55:10;;;;;;;;;1.00;1.00;;;;;19.86;71.97;101128.25;5011953;28;46806;-85
2022/06/07 05:57:36;;;;;;;;;2.00;0.00;;;;;19.84;71.42;101118.53;5007339;28;45753;-84
2022/06/07 06:00:02;;;;;;;;;1.00;1.00;;;;;19.88;71.54;101136.25;5009160;28;45510;-85
2022/06/07 06:02:28;;;;;;;;;1.00;1.00;;;;;19.81;71.63;101108.81;5016174;28;45451;-88
2022/06/07 06:04:56;;;;;;;;;0.67;0.67;;;;;19.84;71.01;101122.09;5015512;28;58655;-87
2022/06/07 06:07:21;;;;;;;;;0.00;0.00;;;;;19.90;71.22;101129.75;5008250;28;45889;-86
2022/06/07 06:10:47;;;;;;;;;1.00;0.00;;;;;19.85;71.50;101121.09;5002375;28;45499;-88
2022/06/07 06:12:41;;;;;;;;;1.00;1.00;;;;;19.75;71.54;101106.56;4999035;28;45516;-89
2022/06/07 06:15:07;;;;;;;;;5.33;3.67;;;;;19.88;71.59;101120.00;5011715;28;46103;-89
2022/06/07 06:17:32;;;;;;;;;1.00;1.00;;;;;19.96;71.30;101136.53;5013890;28;45539;-88
2022/06/07 06:19:57;;;;;;;;;0.00;0.00;;;;;19.91;71.58;101128.75;5013375;28;45623;-89
2022/06/07 06:22:23;;;;;;;;;0.33;0.33;;;;;19.95;70.33;101135.66;5008640;28;45649;-85
2022/06/07 06:24:48;;;;;;;;;1.00;0.00;;;;;19.93;70.79;101132.22;5007138;28;46671;-82
2022/06/07 06:27:13;;;;;;;;;2.00;1.00;;;;;19.99;71.50;101136.28;5001870;28;48753;-88
2022/06/07 06:29:40;;;;;;;;;0.00;0.00;;;;;20.04;71.48;101139.50;5014606;28;45442;-87
2022/06/07 06:32:06;;;;;;;;;1.00;1.00;;;;;20.10;71.38;101143.59;5010540;28;45587;-80
2022/06/07 06:34:31;;;;;;;;;1.33;0.00;;;;;20.13;70.83;101146.91;5008609;28;46115;-83
2022/06/07 06:36:57;;;;;;;;;0.33;0.33;;;;;20.14;70.79;101145.06;5012439;28;45301;-85
2022/06/07 06:39:24;;;;;;;;;1.00;1.00;;;;;20.12;70.36;101157.88;5010317;28;45523;-86
2022/06/07 06:41:49;;;;;;;;;0.67;0.00;;;;;20.11;69.69;101150.69;5011858;28;45494;-85
2022/06/07 06:44:15;;;;;;;;;2.00;1.00;;;;;20.12;70.35;101153.31;5009687;28;45982;-86
2022/06/07 06:46:45;;;;;;;;;8.33;7.33;;;;;20.03;69.98;101140.47;5011750;28;45489;-86
2022/06/07 06:49:12;;;;;;;;;0.00;0.00;;;;;19.98;70.36;101139.97;5004151;28;45589;-86
2022/06/07 06:51:38;;;;;;;;;1.00;1.00;;;;;20.08;70.02;101145.53;5014777;28;45481;-86
2022/06/07 06:54:04;;;;;;;;;0.00;0.00;;;;;20.17;70.54;101166.47;5006631;28;46220;-88
2022/06/07 06:56:31;;;;;;;;;0.33;0.33;;;;;20.20;70.17;101164.38;5002759;28;45643;-86
2022/06/07 06:58:57;;;;;;;;;1.33;1.33;;;;;20.18;70.08;101160.06;5010279;28;45662;-88
2022/06/07 07:01:31;;;;;;;;;0.00;0.00;;;;;20.26;69.81;101160.34;5009817;28;45433;-88
2022/06/07 07:03:59;;;;;;;;;0.00;0.00;;;;;20.23;68.40;101168.72;5013727;28;47200;-86
2022/06/07 07:06:26;;;;;;;;;0.33;0.33;;;;;20.20;68.82;101166.22;5013759;28;45432;-86
2022/06/07 07:08:52;;;;;;;;;0.67;0.33;;;;;19.78;68.60;101106.31;5009010;28;45644;-86
2022/06/07 07:11:20;;;;;;;;;2.00;0.33;;;;;20.23;68.61;101169.56;5013958;28;45453;-87
2022/06/07 07:13:47;;;;;;;;;0.00;0.00;;;;;20.20;68.47;101158.97;5013391;28;47007;-87
2022/06/07 07:16:18;;;;;;;;;0.00;0.00;;;;;20.18;68.52;101157.38;5010314;28;45387;-88
2022/06/07 07:18:44;;;;;;;;;0.00;0.00;;;;;20.33;68.44;101174.28;5011716;28;45475;-87
2022/06/07 07:21:33;;;;;;;;;0.67;0.00;;;;;20.26;67.75;101157.66;5005444;28;45418;-86
2022/06/07 07:24:00;;;;;;;;;0.00;0.00;;;;;20.16;66.81;101135.00;5011938;28;46079;-87
2022/06/07 07:26:28;;;;;;;;;6.00;4.00;;;;;20.45;67.72;101170.59;5009352;28;45480;-86
2022/06/07 07:28:53;;;;;;;;;0.00;0.00;;;;;20.39;67.30;101160.25;5005817;28;45455;-88
2022/06/07 07:31:22;;;;;;;;;0.00;0.00;;;;;20.47;66.34;101152.41;5009586;28;45445;-86
2022/06/07 07:33:48;;;;;;;;;0.00;0.00;;;;;20.53;65.11;101170.84;5001649;28;45741;-86
2022/06/07 07:36:14;;;;;;;;;1.00;0.00;;;;;20.57;65.51;101166.09;5015869;28;45790;-87
2022/06/07 07:38:41;;;;;;;;;0.00;0.00;;;;;20.60;65.59;101166.72;5010480;28;45332;-86
2022/06/07 07:41:19;;;;;;;;;0.00;0.00;;;;;20.70;65.34;101164.16;5008629;28;45301;-86
2022/06/07 07:43:47;;;;;;;;;0.00;0.00;;;;;20.86;65.60;101175.47;5010545;28;47142;-86
2022/06/07 07:46:13;;;;;;;;;0.00;0.00;;;;;20.88;64.57;101150.94;5014471;28;45490;-86
2022/06/07 07:48:39;;;;;;;;;1.00;0.00;;;;;21.07;64.66;101177.41;5005240;28;45449;-86
2022/06/07 07:51:06;;;;;;;;;0.00;0.00;;;;;20.89;64.58;101135.59;5008054;28;45572;-87
2022/06/07 07:53:32;;;;;;;;;0.00;0.00;;;;;21.19;63.75;101170.13;5016106;28;45499;-88
2022/06/07 07:55:57;;;;;;;;;0.00;0.00;;;;;21.28;61.96;101178.41;5014389;28;45560;-87
2022/06/07 07:58:23;;;;;;;;;0.00;0.00;;;;;21.24;62.16;101162.50;5002682;28;45471;-89
2022/06/07 08:00:49;;;;;;;;;0.00;0.00;;;;;21.32;62.69;101176.28;5015898;28;45792;-88
2022/06/07 08:03:16;;;;;;;;;1.00;1.00;;;;;21.40;61.88;101178.41;5008451;28;47097;-82
2022/06/07 08:05:41;;;;;;;;;6.00;4.33;;;;;21.41;62.39;101177.41;5016866;28;45486;-79
2022/06/07 08:08:07;;;;;;;;;0.00;0.00;;;;;21.34;62.37;101171.59;5012216;28;45373;-84
2022/06/07 08:10:33;;;;;;;;;2.00;2.00;;;;;21.46;62.58;101181.47;5002245;28;45532;-83
2022/06/07 08:13:00;;;;;;;;;0.00;0.00;;;;;21.50;61.93;101187.50;5014753;28;45507;-83
2022/06/07 08:15:27;;;;;;;;;0.67;0.00;;;;;21.49;61.13;101174.91;5016605;28;45537;-84
2022/06/07 08:17:53;;;;;;;;;0.00;0.00;;;;;21.56;60.70;101181.56;5011258;28;45396;-81
2022/06/07 08:20:20;;;;;;;;;1.33;0.00;;;;;21.65;60.89;101180.78;5010681;28;45470;-81
2022/06/07 08:22:45;;;;;;;;;1.00;1.00;;;;;21.62;59.72;101158.50;5014768;28;46341;-81
2022/06/07 08:25:10;;;;;;;;;0.00;0.00;;;;;21.80;59.42;101178.66;5007952;28;45423;-82
2022/06/07 08:27:37;;;;;;;;;1.00;1.00;;;;;21.90;59.48;101178.75;5002481;28;45538;-82
2022/06/07 08:30:04;;;;;;;;;0.00;0.00;;;;;21.98;58.93;101178.94;5013660;28;45563;-81
2022/06/07 08:32:30;;;;;;;;;0.00;0.00;;;;;22.02;58.51;101155.13;5010700;28;47207;-82
2022/06/07 08:37:40;;;;;;;;;0.00;0.00;;;;;22.33;58.70;101169.66;5003738;28;45773;-82
2022/06/07 08:40:23;;;;;;;;;2.00;1.00;;;;;22.54;56.81;101170.50;5003830;28;45472;-82
2022/06/07 08:42:56;;;;;;;;;0.00;0.00;;;;;22.44;56.79;101161.44;5008868;28;46377;-82
2022/06/07 08:45:26;;;;;;;;;0.00;0.00;;;;;22.50;57.31;101170.91;5009084;28;45828;-85
2022/06/07 08:48:12;;;;;;;;;0.00;0.00;;;;;22.77;57.77;101164.91;5022545;28;45530;-84
2022/06/07 08:51:05;;;;;;;;;0.00;0.00;;;;;23.23;57.36;101157.25;5004370;28;45575;-84
2022/06/07 08:53:36;;;;;;;;;1.67;0.67;;;;;23.28;56.71;101163.97;5010286;28;46098;-84
2022/06/07 08:56:05;;;;;;;;;3.67;1.33;;;;;23.37;55.13;101151.41;5012710;28;45505;-85
2022/06/07 08:58:37;;;;;;;;;0.00;0.00;;;;;23.35;55.05;101143.38;5013452;28;45605;-87
2022/06/07 09:01:26;;;;;;;;;1.33;1.00;;;;;23.60;54.32;101160.19;5004965;28;45532;-92
2022/06/07 09:04:18;;;;;;;;;0.00;0.00;;;;;23.52;53.92;101157.28;5013166;28;46162;-88
2022/06/07 09:06:47;;;;;;;;;0.00;0.00;;;;;23.23;53.03;101132.75;5009161;28;45287;-86
2022/06/07 09:09:15;;;;;;;;;0.00;0.00;;;;;23.28;54.06;101163.97;5004087;28;45380;-87
2022/06/07 09:12:10;;;;;;;;;0.00;0.00;;;;;22.99;53.65;101130.38;5012183;28;45519;-87
2022/06/07 09:14:42;;;;;;;;;0.00;0.00;;;;;23.12;54.12;101163.63;5015257;28;46081;-87
2022/06/07 09:17:16;;;;;;;;;0.00;0.00;;;;;23.02;53.58;101171.78;5015874;28;45407;-86
2022/06/07 09:19:42;;;;;;;;;0.00;0.00;;;;;22.90;54.45;101162.81;5015023;28;45545;-86
2022/06/07 09:22:19;;;;;;;;;1.33;0.00;;;;;22.84;55.20;101168.78;5000032;28;45447;-86
2022/06/07 09:24:57;;;;;;;;;2.00;1.00;;;;;22.76;54.82;101177.63;5015980;28;47929;-88
2022/06/07 09:27:26;;;;;;;;;0.00;0.00;;;;;22.71;55.15;101165.44;5014238;28;45641;-87
2022/06/07 09:29:56;;;;;;;;;0.00;0.00;;;;;22.71;54.32;101174.47;5015157;28;45341;-87
2022/06/07 09:32:25;;;;;;;;;1.00;0.00;;;;;22.71;54.24;101187.16;5003478;28;45571;-87
2022/06/07 09:34:56;;;;;;;;;1.33;1.00;;;;;22.68;54.56;101172.00;5004280;28;47273;-86
2022/06/07 09:37:28;;;;;;;;;1.00;1.00;;;;;22.75;54.12;101180.47;5015697;28;45527;-87
2022/06/07 09:40:10;;;;;;;;;0.00;0.00;;;;;22.86;53.93;101169.53;5015725;28;45559;-88
2022/06/07 09:42:35;;;;;;;;;0.67;0.33;;;;;23.04;52.82;101172.50;5013547;28;45574;-89
2022/06/07 09:45:13;;;;;;;;;2.00;0.00;;;;;23.13;53.61;101162.63;5006908;28;45904;-88
2022/06/07 09:47:38;;;;;;;;;1.67;0.67;;;;;23.29;53.44;101157.53;5015228;28;45510;-88
2022/06/07 09:50:14;;;;;;;;;1.75;0.00;;;;;24.00;52.92;101159.22;5014552;28;45408;-88
2022/06/07 09:52:55;;;;;;;;;0.00;0.00;;;;;24.56;50.44;101150.25;5003254;28;45474;-87
2022/06/07 09:55:24;;;;;;;;;0.00;0.00;;;;;25.62;48.59;101138.94;5014376;28;46516;-89
2022/06/07 09:58:22;;;;;;;;;0.50;0.00;;;;;26.50;46.56;101153.53;4998105;28;45455;-89
2022/06/07 10:01:08;;;;;;;;;0.00;0.00;;;;;27.17;44.71;101089.91;4993973;28;45481;-88
2022/06/07 10:03:47;;;;;;;;;0.00;0.00;;;;;28.26;42.92;101105.25;4991062;28;45586;-90
2022/06/07 10:06:22;;;;;;;;;0.00;0.00;;;;;28.07;41.93;101142.06;4975413;28;48597;-88
2022/06/07 10:09:15;;;;;;;;;0.00;0.00;;;;;28.29;41.61;101137.78;4990292;28;45712;-89
2022/06/07 10:11:44;;;;;;;;;0.00;0.00;;;;;28.25;40.77;101141.91;4992818;28;45541;-89
2022/06/07 10:14:12;;;;;;;;;0.00;0.00;;;;;27.97;40.89;101138.66;4990382;28;45524;-89
2022/06/07 10:16:59;;;;;;;;;0.00;0.00;;;;;27.52;41.83;101121.66;4993644;28;46907;-89
2022/06/07 10:19:38;;;;;;;;;0.33;0.33;;;;;27.18;42.03;101140.84;4985968;28;45756;-88
2022/06/07 10:22:20;;;;;;;;;0.00;0.00;;;;;27.02;41.28;101144.41;4991736;28;45579;-89
2022/06/07 10:25:22;;;;;;;;;0.00;0.00;;;;;26.94;40.76;101141.63;4993787;28;45626;-88
2022/06/07 10:28:06;;;;;;;;;0.00;0.00;;;;;27.10;41.49;101121.69;4992889;28;46884;-88
2022/06/07 10:30:44;;;;;;;;;0.00;0.00;;;;;27.48;40.47;101122.16;4989910;28;45650;-89
2022/06/07 10:33:31;;;;;;;;;0.00;0.00;;;;;28.04;40.40;101122.41;4996541;28;45845;-87
2022/06/07 10:36:34;;;;;;;;;0.00;0.00;;;;;28.55;38.88;101126.63;5002438;28;46615;-89
2022/06/07 10:39:41;;;;;;;;;0.00;0.00;;;;;28.62;38.96;101093.88;5005584;28;47123;-90
2022/06/07 10:42:29;;;;;;;;;0.00;0.00;;;;;28.46;38.55;101116.69;5014410;28;45592;-88
2022/06/07 10:45:09;;;;;;;;;1.50;0.00;;;;;28.40;38.32;101125.59;5009450;28;45898;-90
2022/06/07 10:47:43;;;;;;;;;0.00;0.00;;;;;28.19;38.30;101123.41;5013704;28;49800;-89
2022/06/07 10:50:26;;;;;;;;;1.00;0.00;;;;;27.73;38.02;101121.16;5014175;28;45493;-90
2022/06/07 10:53:20;;;;;;;;;0.50;0.50;;;;;27.31;39.66;101130.34;5007206;28;47707;-88
2022/06/07 10:55:59;;;;;;;;;0.00;0.00;;;;;26.94;39.81;101127.94;5006180;28;45507;-88
2022/06/07 10:58:29;;;;;;;;;0.00;0.00;;;;;26.66;39.36;101135.50;5003601;28;45294;-88
2022/06/07 11:01:14;;;;;;;;;0.00;0.00;;;;;26.37;40.67;101133.09;5013728;28;46349;-88
2022/06/07 11:03:58;;;;;;;;;0.25;0.00;;;;;26.23;40.45;101120.88;5001863;28;45517;-89
2022/06/07 11:09:41;;;;;;;;;0.00;0.00;;;;;26.43;41.06;101140.63;5017604;28;45615;-89
2022/06/07 11:12:16;;;;;;;;;0.00;0.00;;;;;26.60;40.65;101127.94;5015520;28;45527;-90
2022/06/07 11:14:48;;;;;;;;;0.00;0.00;;;;;26.98;40.86;101120.28;5005281;28;45509;-90
2022/06/07 11:17:26;;;;;;;;;0.00;0.00;;;;;27.41;39.63;101118.38;5010108;28;45517;-91
2022/06/07 11:19:53;;;;;;;;;1.00;1.00;;;;;27.22;38.62;101078.47;5015279;28;45966;-90
2022/06/07 11:22:22;;;;;;;;;0.00;0.00;;;;;27.24;38.51;101069.06;5017112;28;46117;-93
2022/06/07 11:25:00;;;;;;;;;0.00;0.00;;;;;27.36;38.22;101078.66;5009853;28;45522;-89
2022/06/07 11:27:29;;;;;;;;;0.00;0.00;;;;;27.43;37.93;101094.44;5004751;28;45478;-92
2022/06/07 11:30:20;;;;;;;;;1.00;1.00;;;;;27.44;38.39;101127.13;5015399;28;45415;-91
2022/06/07 11:32:48;;;;;;;;;0.25;0.00;;;;;27.06;38.37;101090.19;5004724;28;46121;-89
2022/06/07 11:35:52;;;;;;;;;0.00;0.00;;;;;27.08;39.39;101132.78;5009600;28;45522;-91
2022/06/07 11:38:17;;;;;;;;;0.00;0.00;;;;;27.11;39.87;101123.38;5009810;28;45515;-89
2022/06/07 11:40:44;;;;;;;;;0.50;0.50;;;;;27.10;39.47;101127.16;5005667;28;45469;-89
2022/06/07 11:43:47;;;;;;;;;0.00;0.00;;;;;26.77;38.76;101120.72;5008024;28;45697;-90
2022/06/07 11:46:37;;;;;;;;;0.00;0.00;;;;;26.74;39.03;101114.53;5001339;28;45561;-90
2022/06/07 11:49:22;;;;;;;;;1.00;0.00;;;;;26.79;37.94;101110.47;5013189;28;45324;-89
2022/06/07 11:51:52;;;;;;;;;0.00;0.00;;;;;26.81;38.19;101102.91;5001594;28;45396;-91